createdAt,value
2018-08-31T00:00:01.391Z,8.30
2018-08-31T00:02:46.928Z,8.53
2018-08-31T00:05:37.321Z,7.87
2018-08-31T00:08:17.525Z,7.90
2018-08-31T00:11:56.288Z,8.33
2018-08-31T00:14:25.654Z,7.60
2018-08-31T00:16:55.040Z,8.23
2018-08-31T00:19:24.436Z,8.80
2018-08-31T00:21:53.863Z,8.50
2018-08-31T00:24:34.073Z,7.90
2018-08-31T00:27:15.249Z,8.70
2018-08-31T00:29:55.485Z,7.30
2018-08-31T00:33:03.105Z,7.27
2018-08-31T00:38:55.328Z,8.10
2018-08-31T00:42:36.069Z,7.87
2018-08-31T00:45:28.283Z,7.03
2018-08-31T00:47:58.493Z,7.37
2018-08-31T00:50:28.209Z,7.03
2018-08-31T00:52:57.916Z,7.23
2018-08-31T00:55:27.383Z,6.70
2018-08-31T00:57:56.773Z,6.60
2018-08-31T01:00:26.225Z,6.77
2018-08-31T01:02:55.580Z,7.20
2018-08-31T01:05:24.980Z,7.07
2018-08-31T01:07:54.437Z,7.03
2018-08-31T01:10:24.881Z,6.67
2018-08-31T01:12:55.474Z,6.50
2018-08-31T01:15:24.843Z,6.67
2018-08-31T01:17:54.225Z,7.30
2018-08-31T01:20:23.752Z,7.20
2018-08-31T01:22:53.413Z,6.80
2018-08-31T01:25:22.826Z,6.80
2018-08-31T01:27:52.164Z,7.30
2018-08-31T01:30:21.637Z,6.47
2018-08-31T01:32:50.972Z,7.43
2018-08-31T01:35:20.328Z,7.27
2018-08-31T01:37:49.705Z,7.33
2018-08-31T01:40:19.076Z,7.13
2018-08-31T01:42:48.888Z,7.60
2018-08-31T01:45:18.269Z,6.67
2018-08-31T01:47:47.645Z,7.37
2018-08-31T01:50:17.066Z,6.97
2018-08-31T01:52:46.522Z,7.00
2018-08-31T01:55:15.828Z,6.87
2018-08-31T01:57:45.306Z,6.27
2018-08-31T02:00:14.725Z,6.87
2018-08-31T02:02:44.090Z,6.63
2018-08-31T02:05:13.443Z,6.57
2018-08-31T02:07:42.792Z,6.37
2018-08-31T02:10:12.196Z,6.93
2018-08-31T02:12:41.538Z,6.23
2018-08-31T02:15:11.387Z,6.17
2018-08-31T02:17:40.738Z,6.23
2018-08-31T02:20:10.135Z,6.07
2018-08-31T02:22:39.545Z,6.13
2018-08-31T02:25:08.916Z,6.40
2018-08-31T02:27:38.256Z,6.53
2018-08-31T02:30:07.747Z,6.77
2018-08-31T02:32:37.164Z,6.17
2018-08-31T02:35:06.555Z,6.10
2018-08-31T02:37:35.955Z,6.30
2018-08-31T02:40:05.515Z,6.70
2018-08-31T02:42:34.861Z,6.63
2018-08-31T02:45:04.284Z,6.83
2018-08-31T02:47:33.673Z,6.80
2018-08-31T02:50:03.071Z,6.30
2018-08-31T02:52:32.520Z,6.60
2018-08-31T02:55:01.877Z,6.20
2018-08-31T02:57:31.258Z,6.60
2018-08-31T03:00:00.709Z,6.50
2018-08-31T03:02:30.137Z,6.10
2018-08-31T03:04:59.517Z,6.83
2018-08-31T03:07:28.856Z,7.00
2018-08-31T03:09:58.652Z,7.10
2018-08-31T03:12:28.002Z,7.30
2018-08-31T03:14:57.352Z,6.97
2018-08-31T03:17:26.726Z,6.93
2018-08-31T03:19:56.425Z,6.63
2018-08-31T03:22:25.767Z,6.77
2018-08-31T03:24:55.148Z,7.43
2018-08-31T03:27:24.496Z,7.00
2018-08-31T03:29:53.924Z,7.53
2018-08-31T03:32:23.634Z,7.90
2018-08-31T03:34:53.245Z,7.87
2018-08-31T03:37:22.661Z,7.07
2018-08-31T03:39:52.046Z,7.53
2018-08-31T03:42:21.376Z,7.37
2018-08-31T03:44:50.757Z,7.03
2018-08-31T03:47:20.124Z,6.60
2018-08-31T03:49:49.609Z,6.70
2018-08-31T03:52:18.996Z,7.30
2018-08-31T03:54:48.480Z,7.80
2018-08-31T03:57:17.969Z,7.30
2018-08-31T03:59:47.475Z,7.43
2018-08-31T04:02:16.827Z,7.30
2018-08-31T04:04:46.158Z,7.20
2018-08-31T04:07:15.519Z,6.97
2018-08-31T04:09:45.065Z,7.17
2018-08-31T04:12:14.389Z,7.27
2018-08-31T04:14:43.764Z,7.83
2018-08-31T04:17:13.098Z,7.90
2018-08-31T04:19:42.456Z,7.77
2018-08-31T04:22:11.809Z,7.10
2018-08-31T04:24:41.197Z,7.57
2018-08-31T04:27:10.596Z,6.53
2018-08-31T04:29:39.960Z,6.77
2018-08-31T04:32:09.320Z,7.10
2018-08-31T04:34:38.806Z,6.50
2018-08-31T04:37:08.324Z,6.90
2018-08-31T04:39:37.816Z,7.97
2018-08-31T04:42:07.249Z,6.80
2018-08-31T04:44:36.601Z,7.23
2018-08-31T04:47:06.088Z,7.30
2018-08-31T04:49:35.428Z,7.20
2018-08-31T04:52:04.808Z,7.57
2018-08-31T04:54:34.538Z,6.70
2018-08-31T04:57:03.947Z,6.30
2018-08-31T04:59:33.377Z,6.50
2018-08-31T05:02:02.781Z,7.10
2018-08-31T05:04:32.153Z,6.77
2018-08-31T05:07:01.568Z,6.70
2018-08-31T05:09:31.008Z,6.83
2018-08-31T05:12:00.681Z,7.30
2018-08-31T05:14:30.049Z,7.33
2018-08-31T05:16:59.609Z,7.17
2018-08-31T05:19:28.960Z,7.03
2018-08-31T05:21:58.490Z,7.70
2018-08-31T05:24:27.968Z,7.13
2018-08-31T05:26:57.833Z,7.80
2018-08-31T05:29:27.489Z,6.77
2018-08-31T05:31:56.998Z,6.67
2018-08-31T05:34:26.647Z,6.90
2018-08-31T05:36:56.081Z,7.27
2018-08-31T05:39:25.560Z,7.00
2018-08-31T05:41:55.528Z,7.10
2018-08-31T05:44:25.668Z,7.03
2018-08-31T05:46:55.770Z,6.40
2018-08-31T05:49:25.327Z,6.77
2018-08-31T05:51:54.877Z,6.83
2018-08-31T05:54:24.489Z,6.97
2018-08-31T05:56:54.049Z,7.37
2018-08-31T05:59:23.628Z,6.57
2018-08-31T06:01:53.100Z,7.27
2018-08-31T06:04:22.641Z,7.37
2018-08-31T06:06:52.121Z,7.07
2018-08-31T06:09:21.678Z,6.90
2018-08-31T06:11:51.270Z,7.53
2018-08-31T06:14:20.707Z,7.53
2018-08-31T06:16:50.333Z,7.23
2018-08-31T06:19:19.849Z,7.43
2018-08-31T06:21:49.456Z,7.53
2018-08-31T06:24:25.494Z,6.87
2018-08-31T06:26:55.025Z,7.33
2018-08-31T06:29:25.414Z,7.30
2018-08-31T06:31:55.052Z,7.97
2018-08-31T06:34:24.609Z,7.37
2018-08-31T06:36:54.059Z,7.57
2018-08-31T06:39:23.520Z,7.20
2018-08-31T06:41:53.194Z,7.90
2018-08-31T06:44:22.737Z,7.37
2018-08-31T06:46:52.324Z,8.20
2018-08-31T06:49:21.874Z,7.63
2018-08-31T06:51:51.526Z,7.50
2018-08-31T06:54:21.065Z,7.33
2018-08-31T06:56:50.924Z,7.20
2018-08-31T06:59:20.379Z,7.50
2018-08-31T07:01:50.275Z,6.30
2018-08-31T07:04:20.089Z,6.97
2018-08-31T07:06:49.661Z,7.03
2018-08-31T07:09:19.204Z,7.03
2018-08-31T07:11:48.772Z,7.40
2018-08-31T07:14:18.239Z,6.70
2018-08-31T07:16:47.700Z,6.73
2018-08-31T07:19:17.247Z,6.33
2018-08-31T07:21:46.748Z,6.77
2018-08-31T07:24:16.220Z,6.23
2018-08-31T07:26:45.800Z,6.50
2018-08-31T07:29:15.103Z,6.83
2018-08-31T07:31:44.624Z,7.10
2018-08-31T07:34:14.085Z,6.90
2018-08-31T07:36:43.637Z,7.10
2018-08-31T07:39:13.057Z,6.43
2018-08-31T07:41:42.596Z,6.90
2018-08-31T07:44:12.247Z,7.00
2018-08-31T07:46:41.707Z,6.50
2018-08-31T07:49:11.170Z,7.10
2018-08-31T07:51:40.974Z,7.20
2018-08-31T07:54:10.486Z,6.77
2018-08-31T07:56:39.974Z,6.60
2018-08-31T07:59:09.432Z,7.00
2018-08-31T08:01:39.016Z,7.07
2018-08-31T08:04:08.565Z,7.47
2018-08-31T08:06:38.087Z,7.13
2018-08-31T08:09:09.230Z,6.73
2018-08-31T08:11:38.746Z,7.27
2018-08-31T08:14:08.537Z,6.90
2018-08-31T08:16:38.079Z,6.73
2018-08-31T08:19:07.615Z,6.57
2018-08-31T08:21:38.220Z,7.10
2018-08-31T08:24:07.865Z,6.93
2018-08-31T08:26:37.471Z,7.23
2018-08-31T08:29:07.019Z,7.00
2018-08-31T08:31:36.542Z,7.17
2018-08-31T08:34:06.389Z,7.13
2018-08-31T08:36:35.804Z,7.47
2018-08-31T08:39:06.796Z,7.63
2018-08-31T08:41:36.386Z,7.37
2018-08-31T08:44:06.237Z,7.40
2018-08-31T08:46:35.705Z,7.10
2018-08-31T08:49:05.248Z,6.90
2018-08-31T08:51:34.770Z,7.40
2018-08-31T08:54:04.345Z,7.53
2018-08-31T08:56:34.093Z,7.17
2018-08-31T08:59:03.562Z,7.10
2018-08-31T09:01:35.158Z,7.07
2018-08-31T09:04:04.565Z,7.67
2018-08-31T09:06:34.125Z,7.80
2018-08-31T09:09:04.076Z,7.50
2018-08-31T09:11:33.578Z,7.80
2018-08-31T09:14:03.082Z,7.70
2018-08-31T09:16:32.585Z,7.50
2018-08-31T09:19:02.074Z,7.47
2018-08-31T09:21:32.686Z,6.63
2018-08-31T09:24:02.163Z,7.07
2018-08-31T09:26:31.711Z,7.50
2018-08-31T09:29:01.277Z,7.03
2018-08-31T09:31:30.841Z,6.37
2018-08-31T09:34:00.417Z,7.23
2018-08-31T09:36:30.009Z,6.40
2018-08-31T09:38:59.530Z,6.33
2018-08-31T09:41:29.042Z,6.83
2018-08-31T09:43:58.570Z,6.47
2018-08-31T09:46:28.026Z,6.30
2018-08-31T09:48:57.549Z,6.63
2018-08-31T09:51:26.998Z,7.03
2018-08-31T09:53:56.401Z,6.93
2018-08-31T09:56:25.869Z,6.90
2018-08-31T09:58:55.490Z,6.40
2018-08-31T10:01:30.149Z,6.87
2018-08-31T10:04:03.488Z,6.23
2018-08-31T10:06:34.413Z,7.00
2018-08-31T10:09:05.041Z,6.80
2018-08-31T10:11:35.675Z,6.50
2018-08-31T10:14:05.176Z,6.87
2018-08-31T10:16:34.669Z,7.60
2018-08-31T10:19:04.240Z,6.67
2018-08-31T10:21:33.865Z,6.57
2018-08-31T10:24:03.272Z,5.67
2018-08-31T10:26:32.717Z,6.70
2018-08-31T10:29:02.161Z,6.67
2018-08-31T10:31:31.740Z,6.90
2018-08-31T10:34:01.443Z,6.47
2018-08-31T10:36:31.152Z,6.40
2018-08-31T10:39:00.568Z,6.67
2018-08-31T10:41:30.261Z,6.30
2018-08-31T10:43:59.770Z,7.40
2018-08-31T10:46:29.339Z,6.20
2018-08-31T10:48:58.819Z,6.20
2018-08-31T10:51:28.355Z,6.23
2018-08-31T10:53:57.826Z,7.07
2018-08-31T10:56:27.453Z,6.57
2018-08-31T10:58:56.973Z,6.57
2018-08-31T11:01:26.618Z,6.20
2018-08-31T11:03:56.116Z,6.70
2018-08-31T11:06:25.657Z,6.70
2018-08-31T11:08:55.170Z,7.17
2018-08-31T11:11:24.757Z,6.83
2018-08-31T11:13:54.221Z,6.63
2018-08-31T11:16:23.657Z,6.67
2018-08-31T11:18:53.232Z,7.07
2018-08-31T11:21:22.705Z,6.83
2018-08-31T11:23:52.214Z,7.03
2018-08-31T11:26:21.699Z,6.60
2018-08-31T11:28:51.207Z,6.80
2018-08-31T11:31:20.813Z,6.57
2018-08-31T11:33:50.286Z,6.53
2018-08-31T11:36:20.385Z,7.15
2018-08-31T11:38:49.957Z,7.17
2018-08-31T11:41:19.498Z,6.83
2018-08-31T11:43:48.916Z,7.10
2018-08-31T11:46:18.345Z,7.30
2018-08-31T11:48:47.753Z,6.53
2018-08-31T11:51:17.280Z,6.83
2018-08-31T11:53:46.777Z,6.80
2018-08-31T11:56:16.293Z,6.33
2018-08-31T11:58:45.806Z,6.77
2018-08-31T12:01:15.409Z,6.53
2018-08-31T12:03:44.897Z,6.63
2018-08-31T12:06:14.400Z,6.87
2018-08-31T12:08:44.008Z,6.60
2018-08-31T12:11:13.598Z,7.20
2018-08-31T12:13:43.223Z,6.13
2018-08-31T12:16:12.709Z,6.70
2018-08-31T12:18:42.199Z,6.80
2018-08-31T12:21:11.734Z,6.37
2018-08-31T12:23:41.131Z,6.20
2018-08-31T12:26:10.677Z,6.97
2018-08-31T12:28:40.156Z,6.87
2018-08-31T12:31:09.745Z,7.17
2018-08-31T12:33:39.232Z,6.63
2018-08-31T12:36:09.188Z,6.40
2018-08-31T12:38:38.729Z,6.60
2018-08-31T12:41:08.338Z,6.70
2018-08-31T12:43:37.858Z,6.60
2018-08-31T12:46:07.459Z,6.73
2018-08-31T12:48:37.028Z,6.30
2018-08-31T12:51:06.687Z,6.57
2018-08-31T12:53:36.236Z,6.55
2018-08-31T12:56:05.722Z,7.42
2018-08-31T12:58:35.186Z,6.50
2018-08-31T13:01:05.030Z,6.50
2018-08-31T13:03:34.435Z,6.13
2018-08-31T13:06:03.979Z,6.17
2018-08-31T13:08:33.426Z,5.75
2018-08-31T13:11:02.887Z,5.92
2018-08-31T13:13:32.545Z,6.28
2018-08-31T13:16:02.154Z,5.92
2018-08-31T13:18:31.560Z,5.83
2018-08-31T13:21:01.002Z,5.85
2018-08-31T13:23:30.581Z,5.90
2018-08-31T13:26:00.075Z,5.90
2018-08-31T13:28:29.541Z,5.53
2018-08-31T13:30:59.038Z,5.45
2018-08-31T13:33:28.492Z,5.50
2018-08-31T13:35:57.899Z,5.37
2018-08-31T13:38:27.431Z,6.28
2018-08-31T13:40:57.103Z,6.40
2018-08-31T13:43:26.564Z,5.58
2018-08-31T13:45:56.140Z,5.17
2018-08-31T13:48:25.661Z,5.00
2018-08-31T13:50:55.237Z,5.42
2018-08-31T13:53:24.728Z,5.70
2018-08-31T13:55:54.288Z,5.53
2018-08-31T13:58:23.841Z,5.42
2018-08-31T14:00:53.356Z,6.08
2018-08-31T14:03:22.864Z,5.45
2018-08-31T14:05:52.328Z,5.20
2018-08-31T14:08:21.869Z,5.45
2018-08-31T14:10:51.572Z,4.87
2018-08-31T14:13:21.098Z,5.40
2018-08-31T14:15:50.709Z,4.62
2018-08-31T14:18:20.225Z,5.40
2018-08-31T14:20:49.740Z,4.90
2018-08-31T14:23:19.173Z,4.70
2018-08-31T14:25:48.637Z,5.10
2018-08-31T14:28:18.149Z,5.10
2018-08-31T14:30:47.574Z,5.12
2018-08-31T14:33:17.221Z,4.95
2018-08-31T14:35:46.743Z,4.90
2018-08-31T14:38:16.375Z,6.65
2018-08-31T14:40:45.937Z,6.22
2018-08-31T14:43:15.410Z,6.45
2018-08-31T14:45:44.946Z,6.00
2018-08-31T14:48:14.429Z,6.40
2018-08-31T14:50:44.116Z,5.95
2018-08-31T14:53:13.711Z,5.97
2018-08-31T14:55:43.341Z,5.75
2018-08-31T14:58:13.298Z,5.75
2018-08-31T15:00:42.984Z,5.40
2018-08-31T15:03:12.449Z,5.35
2018-08-31T15:05:41.941Z,5.30
2018-08-31T15:08:11.433Z,4.90
2018-08-31T15:17:28.370Z,5.15
2018-08-31T15:19:57.975Z,5.55
2018-08-31T15:22:27.633Z,5.40
2018-08-31T15:24:57.138Z,5.53
2018-08-31T15:27:26.630Z,5.90
2018-08-31T15:29:56.468Z,5.62
2018-08-31T15:32:26.050Z,6.15
2018-08-31T15:34:55.559Z,5.90
2018-08-31T15:37:25.061Z,5.70
2018-08-31T15:39:54.605Z,6.15
2018-08-31T15:42:24.149Z,5.92
2018-08-31T15:44:53.620Z,5.85
2018-08-31T15:47:23.108Z,5.77
2018-08-31T15:49:52.843Z,6.10
2018-08-31T15:52:22.312Z,6.13
2018-08-31T15:54:51.849Z,6.27
2018-08-31T15:57:21.303Z,6.03
2018-08-31T15:59:51.007Z,6.30
2018-08-31T16:02:20.572Z,6.27
2018-08-31T16:04:50.029Z,6.00
2018-08-31T16:07:19.558Z,6.00
2018-08-31T16:09:49.136Z,6.50
2018-08-31T16:12:18.524Z,6.07
2018-08-31T16:14:48.020Z,6.73
2018-08-31T16:17:17.541Z,6.83
2018-08-31T16:19:47.024Z,6.33
2018-08-31T16:22:16.542Z,6.67
2018-08-31T16:24:46.066Z,5.87
2018-08-31T16:27:15.746Z,6.63
2018-08-31T16:29:45.269Z,6.57
2018-08-31T16:32:15.608Z,6.40
2018-08-31T16:34:45.387Z,6.40
2018-08-31T16:37:14.845Z,6.53
2018-08-31T16:39:47.540Z,5.90
2018-08-31T16:42:18.703Z,6.70
2018-08-31T16:44:49.039Z,6.60
2018-08-31T16:47:18.608Z,6.07
2018-08-31T16:49:48.160Z,5.90
2018-08-31T16:52:17.568Z,5.67
2018-08-31T16:54:47.030Z,6.20
2018-08-31T16:57:16.526Z,6.07
2018-08-31T16:59:46.174Z,6.40
2018-08-31T17:02:15.852Z,6.07
2018-08-31T17:04:45.330Z,6.03
2018-08-31T17:07:14.893Z,6.37
2018-08-31T17:09:44.495Z,5.93
2018-08-31T17:12:14.109Z,6.13
2018-08-31T17:14:43.579Z,5.97
2018-08-31T17:17:13.072Z,5.77
2018-08-31T17:19:42.654Z,5.97
2018-08-31T17:22:12.133Z,6.07
2018-08-31T17:24:41.671Z,5.93
2018-08-31T17:27:16.293Z,5.70
2018-08-31T17:29:47.336Z,6.30
2018-08-31T17:32:22.167Z,6.03
2018-08-31T17:35:59.669Z,6.07
2018-08-31T17:38:29.456Z,6.07
2018-08-31T17:40:58.967Z,6.70
2018-08-31T17:43:28.447Z,6.13
2018-08-31T17:45:57.896Z,6.40
2018-08-31T17:48:27.366Z,6.40
2018-08-31T17:50:56.922Z,5.93
2018-08-31T17:53:26.394Z,5.93
2018-08-31T17:55:55.840Z,5.83
2018-08-31T17:58:25.419Z,5.00
2018-08-31T18:00:55.059Z,6.53
2018-08-31T18:03:24.597Z,6.43
2018-08-31T18:05:54.058Z,5.57
2018-08-31T18:08:23.536Z,6.33
2018-08-31T18:10:53.315Z,6.00
2018-08-31T18:13:22.690Z,7.17
2018-08-31T18:15:52.219Z,5.67
2018-08-31T18:18:21.672Z,6.90
2018-08-31T18:20:51.252Z,6.13
2018-08-31T18:23:20.819Z,6.70
2018-08-31T18:25:50.314Z,5.90
2018-08-31T18:28:19.816Z,6.17
2018-08-31T18:30:49.413Z,6.17
2018-08-31T18:33:18.857Z,5.67
2018-08-31T18:35:48.401Z,6.37
2018-08-31T18:38:17.874Z,6.30
2018-08-31T18:40:47.532Z,6.50
2018-08-31T18:43:17.029Z,5.73
2018-08-31T18:45:46.535Z,5.73
2018-08-31T18:48:16.048Z,6.30
2018-08-31T18:50:45.523Z,5.93
2018-08-31T18:53:15.052Z,6.13
2018-08-31T18:55:44.550Z,5.93
2018-08-31T18:58:13.993Z,6.43
2018-08-31T19:00:47.737Z,6.10
2018-08-31T19:03:17.202Z,5.60
2018-08-31T19:05:46.770Z,6.27
2018-08-31T19:08:16.264Z,6.13
2018-08-31T19:10:45.843Z,5.50
2018-08-31T19:13:15.392Z,6.03
2018-08-31T19:15:45.057Z,6.20
2018-08-31T19:18:14.577Z,5.27
2018-08-31T19:20:45.224Z,6.10
2018-08-31T19:23:14.816Z,6.20
2018-08-31T19:25:44.302Z,5.77
2018-08-31T19:28:14.157Z,5.80
2018-08-31T19:30:43.713Z,5.77
2018-08-31T19:33:13.276Z,6.17
2018-08-31T19:35:42.746Z,5.93
2018-08-31T19:38:12.292Z,6.47
2018-08-31T19:40:41.922Z,6.20
2018-08-31T19:43:11.294Z,5.77
2018-08-31T19:45:40.784Z,5.80
2018-08-31T19:48:10.388Z,6.00
2018-08-31T19:50:40.005Z,5.90
2018-08-31T19:53:09.526Z,6.37
2018-08-31T19:55:39.088Z,5.53
2018-08-31T19:58:08.624Z,5.97
2018-08-31T20:00:38.205Z,6.13
2018-08-31T20:03:07.749Z,6.63
2018-08-31T20:05:37.295Z,5.60
2018-08-31T20:08:06.824Z,6.17
2018-08-31T20:10:36.425Z,6.07
2018-08-31T20:13:05.845Z,5.67
2018-08-31T20:15:35.179Z,5.67
2018-08-31T20:18:04.589Z,6.25
2018-08-31T20:20:34.033Z,5.90
2018-08-31T20:23:05.093Z,5.77
2018-08-31T20:25:35.249Z,6.00
2018-08-31T20:28:04.755Z,5.80
2018-08-31T20:30:34.246Z,5.60
2018-08-31T20:33:04.459Z,5.70
2018-08-31T20:35:34.446Z,5.30
2018-08-31T20:38:04.566Z,5.67
2018-08-31T20:40:34.125Z,5.13
2018-08-31T20:43:03.647Z,5.13
2018-08-31T20:45:33.201Z,5.20
2018-08-31T20:48:02.722Z,5.23
2018-08-31T20:50:32.189Z,4.97
2018-08-31T20:53:01.778Z,5.63
2018-08-31T20:55:31.148Z,5.50
2018-08-31T20:58:00.638Z,5.17
2018-08-31T21:00:30.024Z,5.30
2018-08-31T21:02:59.376Z,5.37
2018-08-31T21:05:28.739Z,5.37
2018-08-31T21:07:58.091Z,4.47
2018-08-31T21:10:27.516Z,4.47
2018-08-31T21:12:56.850Z,5.40
2018-08-31T21:15:26.196Z,5.47
2018-08-31T21:17:55.600Z,4.70
2018-08-31T21:20:25.004Z,5.50
2018-08-31T21:22:54.335Z,5.00
2018-08-31T21:25:23.692Z,5.00
2018-08-31T21:27:53.028Z,4.73
2018-08-31T21:30:22.460Z,4.70
2018-08-31T21:32:51.841Z,4.57
2018-08-31T21:35:21.213Z,5.37
2018-08-31T21:37:50.569Z,5.07
2018-08-31T21:40:20.020Z,4.97
2018-08-31T21:42:49.422Z,4.63
2018-08-31T21:45:18.776Z,5.03
2018-08-31T21:47:48.124Z,4.37
2018-08-31T21:50:17.579Z,5.83
2018-08-31T21:52:46.907Z,5.00
2018-08-31T21:55:16.406Z,5.30
2018-08-31T21:57:45.760Z,4.63
2018-08-31T22:00:18.800Z,5.20
2018-08-31T22:02:49.125Z,4.93
2018-08-31T22:05:18.504Z,4.27
2018-08-31T22:07:48.025Z,4.90
2018-08-31T22:10:17.513Z,5.30
2018-08-31T22:12:46.865Z,5.03
2018-08-31T22:15:22.379Z,4.50
2018-08-31T22:17:52.213Z,5.30
2018-08-31T22:20:22.113Z,4.70
2018-08-31T22:22:52.632Z,4.70
2018-08-31T22:25:22.655Z,4.90
2018-08-31T22:27:52.057Z,4.70
2018-08-31T22:30:21.528Z,4.70
2018-08-31T22:32:50.882Z,4.03
2018-08-31T22:35:20.271Z,4.53
2018-08-31T22:37:49.599Z,4.90
2018-08-31T22:40:18.996Z,4.77
2018-08-31T22:42:48.348Z,4.67
2018-08-31T22:45:17.894Z,4.83
2018-08-31T22:47:47.232Z,4.70
2018-08-31T22:50:16.652Z,4.60
2018-08-31T22:52:46.014Z,4.57
2018-08-31T22:55:15.444Z,4.80
2018-08-31T22:57:44.816Z,5.00
2018-08-31T23:00:14.257Z,4.70
2018-08-31T23:02:43.628Z,4.60
2018-08-31T23:05:13.101Z,5.20
2018-08-31T23:07:47.537Z,4.90
2018-08-31T23:10:16.973Z,4.37
2018-08-31T23:12:46.375Z,4.73
2018-08-31T23:15:15.760Z,4.50
2018-08-31T23:17:45.283Z,4.47
2018-08-31T23:20:14.687Z,5.10
2018-08-31T23:22:44.041Z,5.13
2018-08-31T23:25:18.544Z,4.90
2018-08-31T23:27:47.914Z,4.80
2018-08-31T23:30:17.828Z,4.70
2018-08-31T23:32:47.177Z,5.00
2018-08-31T23:35:16.532Z,4.87
2018-08-31T23:37:45.980Z,4.47
2018-08-31T23:40:15.439Z,4.53
2018-08-31T23:42:44.789Z,4.30
2018-08-31T23:45:14.164Z,4.77
2018-08-31T23:47:43.595Z,4.27
2018-08-31T23:50:13.136Z,4.97
2018-08-31T23:52:42.482Z,4.50
2018-08-31T23:55:11.855Z,4.37
2018-08-31T23:57:41.224Z,5.00
